createdAt,value
2022-08-23T00:02:43.829Z,15.4
2022-08-23T00:08:49.252Z,15.3
2022-08-23T00:14:26.313Z,15.3
2022-08-23T00:20:15.299Z,15.3
2022-08-23T00:25:51.782Z,15.3
2022-08-23T00:31:36.399Z,15.3
2022-08-23T00:37:13.154Z,15.3
2022-08-23T00:43:17.897Z,15.3
2022-08-23T00:48:39.865Z,15.3
2022-08-23T00:54:26.903Z,15.3
2022-08-23T00:59:48.125Z,15.3
2022-08-23T01:05:31.591Z,15.3
2022-08-23T01:10:59.207Z,15.3
2022-08-23T01:16:29.076Z,15.3
2022-08-23T01:21:58.938Z,15.3
2022-08-23T01:28:31.156Z,15.3
2022-08-23T01:34:08.108Z,15.4
2022-08-23T01:39:57.141Z,15.4
2022-08-23T01:45:39.796Z,15.4
2022-08-23T01:51:15.782Z,15.5
2022-08-23T01:56:55.691Z,15.6
2022-08-23T02:02:22.313Z,15.6
2022-08-23T02:08:02.487Z,15.7
2022-08-23T02:13:48.200Z,15.8
2022-08-23T02:19:40.118Z,15.8
2022-08-23T02:25:16.768Z,15.8
2022-08-23T02:31:01.458Z,15.9
2022-08-23T02:36:48.527Z,15.9
2022-08-23T02:42:28.332Z,15.9
2022-08-23T02:52:59.249Z,15.9
2022-08-23T02:58:42.622Z,15.9
2022-08-23T03:04:23.296Z,15.9
2022-08-23T03:10:22.063Z,15.9
2022-08-23T03:16:00.349Z,15.9
2022-08-23T03:21:36.692Z,15.9
2022-08-23T03:27:04.602Z,15.9
2022-08-23T03:33:05.600Z,15.9
2022-08-23T03:38:52.601Z,15.9
2022-08-23T03:44:32.119Z,15.9
2022-08-23T03:50:16.078Z,15.9
2022-08-23T03:55:59.265Z,15.9
2022-08-23T04:01:34.801Z,15.9
2022-08-23T04:07:11.700Z,15.9
2022-08-23T04:13:12.048Z,15.9
2022-08-23T04:18:51.639Z,15.9
2022-08-23T04:24:31.339Z,15.9
2022-08-23T04:30:46.944Z,15.9
2022-08-23T04:36:55.392Z,16
2022-08-23T04:42:43.502Z,16
2022-08-23T04:48:21.020Z,16.1
2022-08-23T04:54:02.803Z,16.1
2022-08-23T04:59:43.719Z,16.2
2022-08-23T05:05:22.927Z,16.3
2022-08-23T05:11:09.274Z,16.4
2022-08-23T05:16:51.548Z,16.6
2022-08-23T05:22:35.564Z,16.8
2022-08-23T05:28:30.006Z,16.9
2022-08-23T05:34:23.782Z,17.3
2022-08-23T05:40:13.857Z,17.6
2022-08-23T05:46:18.418Z,18.2
2022-08-23T05:52:10.532Z,19.1
2022-08-23T05:57:56.310Z,20.4
2022-08-23T06:03:45.971Z,22.1
2022-08-23T06:09:30.690Z,23.6
2022-08-23T06:15:13.220Z,24.9
2022-08-23T06:21:01.952Z,28.2
2022-08-23T06:26:22.655Z,33.4
2022-08-23T06:32:21.760Z,32.4
2022-08-23T06:38:34.882Z,34.4
2022-08-23T06:44:39.341Z,36.1
2022-08-23T06:50:49.991Z,37.3
2022-08-23T06:56:40.913Z,38.3
2022-08-23T07:02:53.633Z,38.9
2022-08-23T07:08:54.932Z,39.8
2022-08-23T07:14:36.444Z,39.5
2022-08-23T07:20:23.678Z,40.6
2022-08-23T07:26:04.756Z,41.6
2022-08-23T07:31:49.559Z,42.2
2022-08-23T07:37:32.181Z,43.2
2022-08-23T07:43:34.574Z,44.3
2022-08-23T07:49:29.204Z,44.3
2022-08-23T07:55:27.690Z,44.1
2022-08-23T08:01:06.326Z,44.1
2022-08-23T08:07:00.146Z,44.4
2022-08-23T08:12:50.190Z,44.3
2022-08-23T08:18:27.260Z,44.3
2022-08-23T08:23:54.947Z,44.4
2022-08-23T08:29:10.501Z,44.5
2022-08-23T08:34:35.155Z,44.3
2022-08-23T08:40:28.311Z,44.4
2022-08-23T08:46:15.413Z,44.8
2022-08-23T08:51:54.536Z,45.1
2022-08-23T08:57:45.010Z,45.3
2022-08-23T09:03:43.269Z,45
2022-08-23T09:09:29.710Z,44.9
2022-08-23T09:15:14.282Z,45
2022-08-23T09:20:53.009Z,45.2
2022-08-23T09:26:41.642Z,45.6
2022-08-23T09:32:20.927Z,46.3
2022-08-23T09:38:04.365Z,48.3
2022-08-23T09:43:34.183Z,49.4
2022-08-23T09:49:11.407Z,50.6
2022-08-23T09:54:59.409Z,51.4
2022-08-23T10:00:38.586Z,52.2
2022-08-23T10:06:25.325Z,52.3
2022-08-23T10:11:59.259Z,53.1
2022-08-23T10:17:39.203Z,53.1
2022-08-23T10:23:05.520Z,53.6
2022-08-23T10:28:45.541Z,53.8
2022-08-23T10:34:13.244Z,54.4
2022-08-23T10:39:42.456Z,54.6
2022-08-23T10:45:24.550Z,54.8
2022-08-23T10:51:12.509Z,55.8
2022-08-23T10:57:05.225Z,55.6
2022-08-23T11:02:46.317Z,55.6
2022-08-23T11:08:24.144Z,55.8
2022-08-23T11:14:23.935Z,56.2
2022-08-23T11:20:00.942Z,56.6
2022-08-23T11:25:38.555Z,56.8
2022-08-23T11:31:24.331Z,57
2022-08-23T11:37:10.742Z,57.1
2022-08-23T11:42:38.164Z,57.3
2022-08-23T11:48:15.945Z,57.6
2022-08-23T11:53:55.078Z,57.8
2022-08-23T11:59:41.695Z,58.1
2022-08-23T12:05:08.587Z,58.3
2022-08-23T12:10:37.950Z,58.4
2022-08-23T12:16:20.805Z,58.6
2022-08-23T12:22:18.802Z,58.8
2022-08-23T12:28:04.681Z,58.9
2022-08-23T12:33:51.445Z,58.9
2022-08-23T12:39:27.715Z,58.9
2022-08-23T12:45:00.914Z,58.8
2022-08-23T12:50:26.059Z,58.6
2022-08-23T12:56:12.659Z,58.3
2022-08-23T13:02:21.016Z,58
2022-08-23T13:08:06.003Z,57.9
2022-08-23T13:13:46.043Z,57.6
2022-08-23T13:18:53.217Z,57.4
2022-08-23T13:24:17.446Z,57.1
2022-08-23T13:30:12.664Z,56.6
2022-08-23T13:36:05.044Z,56.4
2022-08-23T13:41:55.574Z,55.9
2022-08-23T13:47:52.310Z,55.3
2022-08-23T13:54:31.502Z,54.5
2022-08-23T14:00:16.510Z,53.9
2022-08-23T14:06:00.774Z,51.4
2022-08-23T14:11:39.220Z,48.7
2022-08-23T14:18:15.174Z,45.8
2022-08-23T14:25:29.815Z,43
2022-08-23T14:31:16.641Z,41
2022-08-23T14:43:35.605Z,37.3
2022-08-23T14:49:19.303Z,35.7
2022-08-23T14:54:58.919Z,34.3
2022-08-23T15:00:54.471Z,32.8
2022-08-23T15:06:21.508Z,31.7
2022-08-23T15:14:33.391Z,30.1
2022-08-23T15:20:12.799Z,29.1
2022-08-23T15:26:10.367Z,28.1
2022-08-23T15:32:02.079Z,27.2
2022-08-23T15:38:00.433Z,26.3
2022-08-23T15:43:34.125Z,25.7
2022-08-23T15:49:00.075Z,25.1
2022-08-23T15:54:27.919Z,24.8
2022-08-23T16:00:08.881Z,24.5
2022-08-23T16:06:20.159Z,24.3
2022-08-23T16:12:00.307Z,24.3
2022-08-23T16:17:38.399Z,24.1
2022-08-23T16:23:19.165Z,24
2022-08-23T16:29:08.797Z,23.9
2022-08-23T16:35:02.467Z,23.8
2022-08-23T16:40:47.042Z,23.6
2022-08-23T16:46:24.073Z,23.5
2022-08-23T16:52:01.580Z,23.4
2022-08-23T16:58:00.097Z,23.2
2022-08-23T17:03:39.672Z,22.9
2022-08-23T17:09:24.411Z,22.8
2022-08-23T17:15:07.700Z,22.5
2022-08-23T17:20:45.291Z,22.3
2022-08-23T17:26:25.152Z,22.1
2022-08-23T17:32:14.546Z,21.9
2022-08-23T17:37:56.204Z,21.7
2022-08-23T17:43:28.733Z,21.5
2022-08-23T17:48:51.917Z,21.3
2022-08-23T18:00:24.111Z,20.9
2022-08-23T18:06:03.160Z,20.8
2022-08-23T18:11:58.188Z,20.7
2022-08-23T18:17:38.670Z,20.5
2022-08-23T18:23:18.673Z,20.4
2022-08-23T18:29:05.411Z,20.2
2022-08-23T18:34:57.148Z,20.1
2022-08-23T18:40:47.445Z,19.9
2022-08-23T18:46:33.440Z,19.8
2022-08-23T18:52:27.196Z,19.6
2022-08-23T18:58:12.041Z,19.5
2022-08-23T19:03:50.948Z,19.4
2022-08-23T19:09:39.226Z,19.3
2022-08-23T19:14:57.487Z,19.1
2022-08-23T19:20:35.348Z,19
2022-08-23T19:25:57.574Z,18.9
2022-08-23T19:31:25.005Z,18.8
2022-08-23T19:37:39.708Z,18.6
2022-08-23T19:48:55.189Z,18.3
2022-08-23T19:54:42.414Z,18.1
2022-08-23T20:05:33.643Z,17.9
2022-08-23T20:10:57.798Z,17.8
2022-08-23T20:16:34.790Z,17.6
2022-08-23T20:22:01.835Z,17.4
2022-08-23T20:28:08.666Z,17.4
2022-08-23T20:33:48.255Z,17.3
2022-08-23T20:39:11.493Z,17.3
2022-08-23T20:50:01.641Z,17.1
2022-08-23T20:55:27.544Z,17.1
2022-08-23T21:00:56.259Z,17.1
2022-08-23T21:06:38.346Z,17.1
2022-08-23T21:18:04.216Z,16.9
2022-08-23T21:23:43.423Z,16.9
2022-08-23T21:29:15.311Z,16.9
2022-08-23T21:34:52.139Z,16.8
2022-08-23T21:40:30.188Z,16.8
2022-08-23T21:45:59.534Z,16.8
2022-08-23T21:51:23.001Z,16.8
2022-08-23T21:57:21.029Z,16.8
2022-08-23T22:02:58.982Z,16.8
2022-08-23T22:08:44.969Z,16.8
2022-08-23T22:20:09.639Z,16.8
2022-08-23T22:25:37.248Z,16.8
2022-08-23T22:30:59.196Z,16.8
2022-08-23T22:36:05.608Z,16.8
2022-08-23T22:42:00.542Z,16.9
2022-08-23T22:47:46.918Z,16.9
2022-08-23T22:53:27.670Z,16.9
2022-08-23T22:59:08.847Z,16.9
2022-08-23T23:05:17.123Z,16.9
2022-08-23T23:10:53.799Z,16.9
2022-08-23T23:21:38.257Z,16.9
2022-08-23T23:27:18.550Z,16.9
2022-08-23T23:32:59.619Z,16.8
2022-08-23T23:38:43.986Z,16.8
2022-08-23T23:44:30.820Z,16.7
2022-08-23T23:50:10.034Z,16.6
2022-08-23T23:55:36.436Z,16.6
